createdAt,value
2023-04-12T00:00:17.923Z,100073.31
2023-04-12T00:02:45.834Z,100075.19
2023-04-12T00:05:14.233Z,100064.88
2023-04-12T00:07:42.833Z,100056.72
2023-04-12T00:10:10.718Z,100056.56
2023-04-12T00:12:38.528Z,100053.00
2023-04-12T00:15:08.179Z,100047.72
2023-04-12T00:17:36.354Z,100049.59
2023-04-12T00:20:06.065Z,100046.06
2023-04-12T00:22:37.534Z,100044.84
2023-04-12T00:25:05.388Z,100043.66
2023-04-12T00:27:33.302Z,100031.94
2023-04-12T00:30:01.163Z,100017.03
2023-04-12T00:32:29.110Z,100025.00
2023-04-12T00:34:57.019Z,100010.75
2023-04-12T00:37:24.878Z,100018.06
2023-04-12T00:39:52.696Z,100019.28
2023-04-12T00:42:20.566Z,100012.81
2023-04-12T00:44:48.662Z,100012.81
2023-04-12T00:47:16.540Z,100007.38
2023-04-12T00:49:44.492Z,100001.47
2023-04-12T00:52:12.303Z,100008.59
2023-04-12T00:54:40.178Z,99999.44
2023-04-12T00:57:08.009Z,100002.47
2023-04-12T00:59:35.810Z,99991.44
2023-04-12T01:02:03.778Z,99979.94
2023-04-12T01:04:32.105Z,99977.56
2023-04-12T01:07:01.740Z,99975.03
2023-04-12T01:09:30.316Z,99970.28
2023-04-12T01:11:58.337Z,99973.19
2023-04-12T01:14:26.176Z,99973.19
2023-04-12T01:16:55.172Z,99971.69
2023-04-12T01:19:23.354Z,99974.03
2023-04-12T01:21:51.334Z,99976.91
2023-04-12T01:24:19.703Z,99967.75
2023-04-12T01:26:47.486Z,99962.31
2023-04-12T01:29:15.425Z,99958.94
2023-04-12T01:31:43.358Z,99953.50
2023-04-12T01:34:11.914Z,99941.63
2023-04-12T01:36:39.787Z,99940.78
2023-04-12T01:39:07.838Z,99939.28
2023-04-12T01:41:35.609Z,99935.53
2023-04-12T01:44:03.405Z,99930.09
2023-04-12T01:46:32.613Z,99926.53
2023-04-12T01:49:00.469Z,99925.69
2023-04-12T01:51:28.458Z,99923.16
2023-04-12T01:53:58.914Z,99923.81
2023-04-12T01:56:27.623Z,99920.94
2023-04-12T01:58:55.440Z,99924.66
2023-04-12T02:01:23.258Z,99920.09
2023-04-12T02:03:51.271Z,99926.84
2023-04-12T02:06:19.135Z,99925.53
2023-04-12T02:08:47.025Z,99919.91
2023-04-12T02:11:15.545Z,99918.41
2023-04-12T02:13:43.386Z,99912.13
2023-04-12T02:16:14.081Z,99904.28
2023-04-12T02:18:42.433Z,99908.66
2023-04-12T02:21:10.450Z,99913.63
2023-04-12T02:23:38.230Z,99894.63
2023-04-12T02:26:06.150Z,99899.69
2023-04-12T02:28:34.842Z,99898.19
2023-04-12T02:31:02.681Z,99892.09
2023-04-12T02:33:30.940Z,99887.53
2023-04-12T02:35:59.473Z,99873.59
2023-04-12T02:38:27.337Z,99872.91
2023-04-12T02:40:55.106Z,99873.75
2023-04-12T02:43:25.716Z,99864.94
2023-04-12T02:45:53.517Z,99861.59
2023-04-12T02:48:21.443Z,99869.53
2023-04-12T02:50:49.260Z,99861.59
2023-04-12T02:53:17.095Z,99853.25
2023-04-12T02:55:45.050Z,99845.94
2023-04-12T02:58:12.913Z,99843.59
2023-04-12T03:00:42.473Z,99835.84
2023-04-12T03:03:10.430Z,99832.47
2023-04-12T03:05:41.953Z,99824.31
2023-04-12T03:08:09.719Z,99821.81
2023-04-12T03:10:37.597Z,99830.13
2023-04-12T03:13:05.780Z,99834.72
2023-04-12T03:15:33.616Z,99833.00
2023-04-12T03:18:01.575Z,99824.03
2023-04-12T03:20:29.600Z,99812.88
2023-04-12T03:22:57.377Z,99815.41
2023-04-12T03:25:25.406Z,99811.88
2023-04-12T03:27:53.294Z,99813.53
2023-04-12T03:30:23.405Z,99810.16
2023-04-12T03:32:51.244Z,99810.53
2023-04-12T03:35:19.112Z,99796.13
2023-04-12T03:37:47.029Z,99795.97
2023-04-12T03:40:14.875Z,99792.97
2023-04-12T03:42:42.692Z,99791.25
2023-04-12T03:45:13.242Z,99792.75
2023-04-12T03:47:43.227Z,99796.97
2023-04-12T03:50:16.292Z,99786.50
2023-04-12T03:52:50.342Z,99794.63
2023-04-12T03:55:18.604Z,99788.53
2023-04-12T03:57:46.651Z,99774.81
2023-04-12T04:00:14.670Z,99773.09
2023-04-12T04:02:47.469Z,99766.00
2023-04-12T04:05:15.681Z,99769.25
2023-04-12T04:07:43.995Z,99763.38
2023-04-12T04:10:11.777Z,99761.78
2023-04-12T04:12:39.593Z,99763.28
2023-04-12T04:15:07.388Z,99758.03
2023-04-12T04:17:35.238Z,99757.75
2023-04-12T04:20:05.546Z,99752.97
2023-04-12T04:22:33.721Z,99752.59
2023-04-12T04:25:03.091Z,99750.56
2023-04-12T04:27:34.293Z,99743.09
2023-04-12T04:30:02.694Z,99735.59
2023-04-12T04:32:30.615Z,99746.47
2023-04-12T04:35:00.019Z,99737.94
2023-04-12T04:37:27.926Z,99741.50
2023-04-12T04:39:55.793Z,99741.13
2023-04-12T04:42:24.289Z,99738.41
2023-04-12T04:44:52.265Z,99730.47
2023-04-12T04:47:20.072Z,99728.13
2023-04-12T04:49:48.177Z,99729.81
2023-04-12T04:52:15.998Z,99720.63
2023-04-12T04:54:43.801Z,99716.22
2023-04-12T04:57:12.126Z,99709.75
2023-04-12T04:59:39.878Z,99702.66
2023-04-12T05:02:07.689Z,99707.25
2023-04-12T05:04:35.590Z,99702.28
2023-04-12T05:07:03.327Z,99706.03
2023-04-12T05:09:31.149Z,99698.44
2023-04-12T05:11:58.941Z,99698.06
2023-04-12T05:14:41.321Z,99698.06
2023-04-12T05:17:13.563Z,99688.06
2023-04-12T05:19:41.518Z,99693.13
2023-04-12T05:22:09.242Z,99687.72
2023-04-12T05:24:40.202Z,99674.38
2023-04-12T05:27:07.974Z,99671.03
2023-04-12T05:29:35.752Z,99673.75
2023-04-12T05:32:04.098Z,99672.06
2023-04-12T05:34:32.332Z,99660.81
2023-04-12T05:37:00.746Z,99665.91
2023-04-12T05:39:28.662Z,99666.91
2023-04-12T05:41:56.495Z,99656.88
2023-04-12T05:44:24.307Z,99656.31
2023-04-12T05:46:52.198Z,99652.59
2023-04-12T05:49:20.147Z,99641.53
2023-04-12T05:51:47.953Z,99638.00
2023-04-12T05:54:15.884Z,99640.31
2023-04-12T05:56:43.710Z,99638.91
2023-04-12T05:59:12.481Z,99640.41
2023-04-12T06:01:42.890Z,99640.41
2023-04-12T06:04:10.954Z,99636.66
2023-04-12T06:06:38.843Z,99637.97
2023-04-12T06:09:06.719Z,99620.81
2023-04-12T06:11:34.950Z,99624.19
2023-04-12T06:14:02.754Z,99624.19
2023-04-12T06:16:30.793Z,99614.63
2023-04-12T06:18:58.993Z,99610.50
2023-04-12T06:21:27.008Z,99616.19
2023-04-12T06:23:54.855Z,99617.31
2023-04-12T06:26:22.676Z,99613.66
2023-04-12T06:28:50.541Z,99604.91
2023-04-12T06:31:18.418Z,99595.38
2023-04-12T06:33:46.270Z,99593.75
2023-04-12T06:36:16.170Z,99598.38
2023-04-12T06:38:44.320Z,99594.03
2023-04-12T06:41:12.145Z,99601.22
2023-04-12T06:43:39.934Z,99584.34
2023-04-12T06:46:09.088Z,99588.53
2023-04-12T06:48:36.921Z,99584.59
2023-04-12T06:51:04.757Z,99586.72
2023-04-12T06:53:35.067Z,99589.25
2023-04-12T06:56:03.602Z,99583.59
2023-04-12T06:58:32.163Z,99587.81
2023-04-12T07:01:00.006Z,99574.44
2023-04-12T07:03:29.390Z,99574.44
2023-04-12T07:05:57.369Z,99568.59
2023-04-12T07:08:25.187Z,99561.06
2023-04-12T07:10:53.023Z,99551.88
2023-04-12T07:13:23.732Z,99550.81
2023-04-12T07:15:51.837Z,99548.09
2023-04-12T07:18:19.872Z,99541.84
2023-04-12T07:20:47.988Z,99535.56
2023-04-12T07:23:16.234Z,99528.84
2023-04-12T07:25:44.073Z,99527.34
2023-04-12T07:28:11.990Z,99529.25
2023-04-12T07:30:39.788Z,99514.41
2023-04-12T07:33:18.486Z,99507.09
2023-04-12T07:35:47.210Z,99508.97
2023-04-12T07:38:16.683Z,99498.31
2023-04-12T07:40:44.783Z,99494.97
2023-04-12T07:43:12.673Z,99487.81
2023-04-12T07:45:40.569Z,99491.19
2023-04-12T07:48:08.409Z,99487.22
2023-04-12T07:50:36.308Z,99478.25
2023-04-12T07:53:04.134Z,99482.63
2023-04-12T07:55:32.021Z,99474.06
2023-04-12T07:57:59.873Z,99475.75
2023-04-12T08:00:27.670Z,99470.09
2023-04-12T08:02:57.073Z,99455.28
2023-04-12T08:05:25.143Z,99453.84
2023-04-12T08:07:53.011Z,99454.50
2023-04-12T08:10:20.794Z,99454.28
2023-04-12T08:12:48.587Z,99451.56
2023-04-12T08:15:16.557Z,99455.56
2023-04-12T08:17:46.726Z,99455.38
2023-04-12T08:20:15.533Z,99450.13
2023-04-12T08:22:43.403Z,99438.00
2023-04-12T08:25:11.194Z,99434.88
2023-04-12T08:27:38.990Z,99435.28
2023-04-12T08:30:06.796Z,99422.34
2023-04-12T08:32:34.577Z,99434.03
2023-04-12T08:35:02.621Z,99432.81
2023-04-12T08:37:30.577Z,99413.59
2023-04-12T08:39:58.389Z,99415.50
2023-04-12T08:42:26.221Z,99408.63
2023-04-12T08:44:54.037Z,99402.16
2023-04-12T08:47:21.937Z,99406.34
2023-04-12T08:49:49.763Z,99392.31
2023-04-12T08:52:17.604Z,99395.47
2023-04-12T08:54:45.509Z,99390.88
2023-04-12T08:57:13.440Z,99388.16
2023-04-12T08:59:41.209Z,99379.34
2023-04-12T09:02:09.096Z,99377.72
2023-04-12T09:04:37.087Z,99364.31
2023-04-12T09:07:05.730Z,99365.56
2023-04-12T09:09:33.568Z,99362.22
2023-04-12T09:12:01.937Z,99356.16
2023-04-12T09:14:29.835Z,99354.91
2023-04-12T09:16:57.701Z,99348.41
2023-04-12T09:19:25.740Z,99346.31
2023-04-12T09:21:53.598Z,99341.28
2023-04-12T09:24:24.236Z,99340.66
2023-04-12T09:26:52.140Z,99334.78
2023-04-12T09:29:19.930Z,99326.41
2023-04-12T09:31:47.830Z,99327.03
2023-04-12T09:34:15.771Z,99322.44
2023-04-12T09:36:43.559Z,99320.53
2023-04-12T09:39:11.343Z,99312.38
2023-04-12T09:41:39.361Z,99301.69
2023-04-12T09:44:07.137Z,99301.91
2023-04-12T09:46:35.226Z,99290.81
2023-04-12T09:49:05.662Z,99293.97
2023-04-12T09:51:33.863Z,99282.22
2023-04-12T09:54:02.079Z,99281.38
2023-04-12T09:56:29.996Z,99284.09
2023-04-12T09:58:58.041Z,99273.84
2023-04-12T10:01:26.157Z,99265.06
2023-04-12T10:03:55.149Z,99247.88
2023-04-12T10:06:23.804Z,99248.31
2023-04-12T10:08:51.789Z,99242.88
2023-04-12T10:11:19.855Z,99245.34
2023-04-12T10:13:47.665Z,99234.06
2023-04-12T10:16:15.776Z,99240.34
2023-04-12T10:18:43.646Z,99242.44
2023-04-12T10:21:11.727Z,99231.13
2023-04-12T10:23:39.620Z,99234.88
2023-04-12T10:26:07.412Z,99238.63
2023-04-12T10:28:35.444Z,99225.66
2023-04-12T10:31:03.555Z,99214.78
2023-04-12T10:33:31.598Z,99220.84
2023-04-12T10:36:00.520Z,99216.22
2023-04-12T10:38:35.865Z,99194.19
2023-04-12T10:41:04.027Z,99184.16
2023-04-12T10:43:31.997Z,99185.84
2023-04-12T10:46:04.424Z,99185.84
2023-04-12T10:48:32.461Z,99182.28
2023-04-12T10:51:00.307Z,99194.00
2023-04-12T10:53:28.599Z,99184.16
2023-04-12T10:55:56.593Z,99182.91
2023-04-12T10:58:24.614Z,99168.22
2023-04-12T11:00:52.495Z,99174.94
2023-04-12T11:03:20.725Z,99169.47
2023-04-12T11:05:48.759Z,99158.59
2023-04-12T11:08:16.727Z,99169.47
2023-04-12T11:10:44.474Z,99158.59
2023-04-12T11:13:12.312Z,99152.28
2023-04-12T11:15:40.099Z,99144.34
2023-04-12T11:18:08.077Z,99142.25
2023-04-12T11:20:36.367Z,99133.00
2023-04-12T11:23:05.879Z,99134.66
2023-04-12T11:25:33.766Z,99130.03
2023-04-12T11:28:01.641Z,99124.59
2023-04-12T11:30:29.533Z,99127.13
2023-04-12T11:32:57.413Z,99128.34
2023-04-12T11:35:27.713Z,99118.28
2023-04-12T11:37:55.733Z,99108.22
2023-04-12T11:40:23.895Z,99111.78
2023-04-12T11:42:51.727Z,99121.63
2023-04-12T11:45:19.831Z,99107.16
2023-04-12T11:47:47.695Z,99101.72
2023-04-12T11:50:15.570Z,99107.78
2023-04-12T11:52:43.488Z,99103.16
2023-04-12T11:55:11.932Z,99090.59
2023-04-12T11:57:39.935Z,99098.56
2023-04-12T12:00:08.040Z,99088.09
2023-04-12T12:02:41.076Z,99097.53
2023-04-12T12:05:17.232Z,99083.09
2023-04-12T12:07:45.250Z,99078.06
2023-04-12T12:10:18.495Z,99080.63
2023-04-12T12:12:52.344Z,99080.44
2023-04-12T12:15:20.418Z,99084.44
2023-04-12T12:17:48.553Z,99077.53
2023-04-12T12:20:16.800Z,99081.09
2023-04-12T12:22:44.755Z,99077.78
2023-04-12T12:25:12.649Z,99078.78
2023-04-12T12:27:40.890Z,99086.13
2023-04-12T12:30:09.677Z,99077.94
2023-04-12T12:32:39.051Z,99084.03
2023-04-12T12:35:08.154Z,99085.09
2023-04-12T12:37:36.087Z,99080.69
2023-04-12T12:40:07.341Z,99084.47
2023-04-12T12:42:36.033Z,99092.44
2023-04-12T12:45:04.580Z,99088.66
2023-04-12T12:47:32.897Z,99092.19
2023-04-12T12:50:01.139Z,99094.94
2023-04-12T12:52:29.175Z,99089.72
2023-04-12T12:54:57.588Z,99092.44
2023-04-12T12:57:25.438Z,99090.13
2023-04-12T12:59:53.291Z,99076.94
2023-04-12T13:02:21.429Z,99070.91
2023-04-12T13:04:49.951Z,99074.91
2023-04-12T13:07:17.988Z,99062.56
2023-04-12T13:09:46.164Z,99061.69
2023-04-12T13:12:15.861Z,99060.88
2023-04-12T13:14:43.847Z,99053.97
2023-04-12T13:17:11.781Z,99052.50
2023-04-12T13:19:40.796Z,99053.56
2023-04-12T13:22:08.723Z,99052.31
2023-04-12T13:24:36.665Z,99054.22
2023-04-12T13:27:04.987Z,99045.22
2023-04-12T13:29:32.821Z,99040.22
2023-04-12T13:32:00.755Z,99032.06
2023-04-12T13:34:28.645Z,99031.44
2023-04-12T13:36:56.481Z,99029.59
2023-04-12T13:39:24.381Z,99036.47
2023-04-12T13:41:52.319Z,99023.91
2023-04-12T13:44:20.216Z,99026.44
2023-04-12T13:46:48.141Z,99022.13
2023-04-12T13:49:16.101Z,99020.94
2023-04-12T13:51:44.075Z,99014.00
2023-04-12T13:54:12.083Z,99007.25
2023-04-12T13:56:40.320Z,99002.94
2023-04-12T13:59:08.279Z,99007.31
2023-04-12T14:01:36.605Z,99005.91
2023-04-12T14:04:05.077Z,99010.00
2023-04-12T14:06:33.016Z,98997.47
2023-04-12T14:09:01.231Z,98996.94
2023-04-12T14:11:29.765Z,98996.25
2023-04-12T14:13:58.141Z,99000.88
2023-04-12T14:16:26.014Z,98984.13
2023-04-12T14:18:53.946Z,98990.88
2023-04-12T14:21:23.059Z,98987.53
2023-04-12T14:23:51.002Z,98991.56
2023-04-12T14:26:19.018Z,98985.94
2023-04-12T14:28:50.167Z,98980.59
2023-04-12T14:31:18.328Z,98981.28
2023-04-12T14:33:46.933Z,98971.28
2023-04-12T14:36:17.944Z,98975.28
2023-04-12T14:38:46.134Z,98963.16
2023-04-12T14:41:14.150Z,98970.38
2023-04-12T14:43:42.347Z,98962.03
2023-04-12T14:46:10.406Z,98959.97
2023-04-12T14:48:38.592Z,98954.16
2023-04-12T14:51:06.708Z,98951.72
2023-04-12T14:53:34.782Z,98950.72
2023-04-12T14:56:03.073Z,98949.69
2023-04-12T14:58:31.410Z,98946.81
2023-04-12T15:01:00.390Z,98940.63
2023-04-12T15:03:29.988Z,98939.84
2023-04-12T15:05:59.287Z,98935.88
2023-04-12T15:08:29.153Z,98925.44
2023-04-12T15:10:57.040Z,98924.47
2023-04-12T15:13:33.375Z,98909.19
2023-04-12T15:16:02.162Z,98906.06
2023-04-12T15:18:30.240Z,98906.50
2023-04-12T15:21:00.392Z,98898.16
2023-04-12T15:23:28.324Z,98897.19
2023-04-12T15:25:56.224Z,98891.53
2023-04-12T15:28:24.138Z,98878.94
2023-04-12T15:30:52.310Z,98881.28
2023-04-12T15:33:20.888Z,98872.28
2023-04-12T15:35:48.911Z,98865.97
2023-04-12T15:38:21.933Z,98873.56
2023-04-12T15:40:51.363Z,98867.50
2023-04-12T15:43:19.203Z,98879.69
2023-04-12T15:45:48.022Z,98863.50
2023-04-12T15:48:15.970Z,98855.25
2023-04-12T15:50:43.826Z,98858.75
2023-04-12T15:53:11.698Z,98853.25
2023-04-12T15:55:40.852Z,98839.78
2023-04-12T15:58:08.934Z,98841.78
2023-04-12T16:00:38.414Z,98838.03
2023-04-12T16:03:07.645Z,98837.78
2023-04-12T16:05:36.105Z,98840.06
2023-04-12T16:08:04.317Z,98832.13
2023-04-12T16:10:32.238Z,98835.06
2023-04-12T16:13:00.039Z,98821.88
2023-04-12T16:15:28.035Z,98830.53
2023-04-12T16:17:56.363Z,98819.63
2023-04-12T16:20:24.495Z,98825.53
2023-04-12T16:22:56.746Z,98812.97
2023-04-12T16:25:24.760Z,98807.97
2023-04-12T16:27:52.702Z,98810.09
2023-04-12T16:30:22.624Z,98800.25
2023-04-12T16:32:50.815Z,98804.25
2023-04-12T16:35:19.163Z,98792.53
2023-04-12T16:37:47.113Z,98785.41
2023-04-12T16:40:15.496Z,98793.19
2023-04-12T16:42:43.521Z,98786.31
2023-04-12T16:45:11.599Z,98793.03
2023-04-12T16:47:39.587Z,98790.56
2023-04-12T16:50:08.996Z,98792.69
2023-04-12T16:52:38.289Z,98793.97
2023-04-12T16:55:06.182Z,98788.72
2023-04-12T16:57:34.084Z,98799.03
2023-04-12T17:00:02.671Z,98786.31
2023-04-12T17:02:31.638Z,98791.38
2023-04-12T17:04:59.716Z,98785.34
2023-04-12T17:07:28.081Z,98783.59
2023-04-12T17:09:56.452Z,98782.75
2023-04-12T17:12:24.402Z,98790.41
2023-04-12T17:14:52.427Z,98790.63
2023-04-12T17:17:20.609Z,98792.38
2023-04-12T17:19:48.738Z,98781.94
2023-04-12T17:22:18.156Z,98778.59
2023-04-12T17:24:47.020Z,98775.88
2023-04-12T17:27:15.133Z,98770.06
2023-04-12T17:29:43.467Z,98759.34
2023-04-12T17:32:13.074Z,98760.00
2023-04-12T17:34:42.580Z,98755.88
2023-04-12T17:37:10.503Z,98763.63
2023-04-12T17:39:38.532Z,98763.28
2023-04-12T17:42:07.221Z,98767.63
2023-04-12T17:44:35.080Z,98770.50
2023-04-12T17:47:02.974Z,98768.34
2023-04-12T17:49:30.818Z,98763.84
2023-04-12T17:52:01.411Z,98756.84
2023-04-12T17:54:29.259Z,98762.31
2023-04-12T17:56:57.782Z,98762.09
2023-04-12T17:59:25.653Z,98752.81
2023-04-12T18:01:53.921Z,98754.50
2023-04-12T18:04:21.968Z,98754.50
2023-04-12T18:06:50.049Z,98751.78
2023-04-12T18:09:18.197Z,98756.84
2023-04-12T18:11:46.981Z,98749.38
2023-04-12T18:14:14.799Z,98750.91
2023-04-12T18:16:42.794Z,98753.03
2023-04-12T18:19:11.460Z,98760.25
2023-04-12T18:21:39.298Z,98762.56
2023-04-12T18:24:07.279Z,98770.97
2023-04-12T18:26:35.145Z,98759.47
2023-04-12T18:29:02.984Z,98762.66
2023-04-12T18:31:31.264Z,98767.97
2023-04-12T18:33:59.428Z,98768.91
2023-04-12T18:36:27.994Z,98770.41
2023-04-12T18:38:55.824Z,98781.31
2023-04-12T18:41:23.609Z,98780.13
2023-04-12T18:43:51.416Z,98776.78
2023-04-12T18:46:19.258Z,98768.00
2023-04-12T18:48:48.139Z,98772.84
2023-04-12T18:51:16.057Z,98774.94
2023-04-12T18:53:43.899Z,98779.81
2023-04-12T18:56:11.760Z,98775.66
2023-04-12T18:58:53.999Z,98782.38
2023-04-12T19:01:22.913Z,98779.28
2023-04-12T19:03:51.132Z,98774.91
2023-04-12T19:06:19.191Z,98773.44
2023-04-12T19:08:46.984Z,98768.94
2023-04-12T19:11:15.509Z,98770.88
2023-04-12T19:13:43.271Z,98780.72
2023-04-12T19:16:11.508Z,98789.50
2023-04-12T19:18:39.345Z,98789.75
2023-04-12T19:21:07.514Z,98791.03
2023-04-12T19:23:35.276Z,98793.34
2023-04-12T19:26:03.172Z,98786.31
2023-04-12T19:28:31.284Z,98771.94
2023-04-12T19:30:59.159Z,98765.91
2023-04-12T19:33:27.119Z,98770.13
2023-04-12T19:35:56.342Z,98775.81
2023-04-12T19:38:24.358Z,98767.84
2023-04-12T19:40:54.657Z,98773.50
2023-04-12T19:43:23.384Z,98784.50
2023-04-12T19:45:51.446Z,98778.22
2023-04-12T19:48:19.924Z,98778.84
2023-04-12T19:50:47.931Z,98768.56
2023-04-12T19:53:18.124Z,98765.69
2023-04-12T19:55:46.617Z,98768.41
2023-04-12T19:58:14.525Z,98763.19
2023-04-12T20:00:42.334Z,98769.44
2023-04-12T20:03:10.411Z,98776.19
2023-04-12T20:05:38.496Z,98774.53
2023-04-12T20:08:06.332Z,98777.25
2023-04-12T20:10:34.138Z,98774.16
2023-04-12T20:13:02.028Z,98787.38
2023-04-12T20:15:29.827Z,98796.81
2023-04-12T20:17:58.268Z,98803.31
2023-04-12T20:20:26.158Z,98795.16
2023-04-12T20:22:53.973Z,98785.53
2023-04-12T20:25:21.807Z,98779.94
2023-04-12T20:27:52.198Z,98798.75
2023-04-12T20:30:21.009Z,98802.53
2023-04-12T20:32:49.391Z,98828.69
2023-04-12T20:35:18.778Z,98828.94
2023-04-12T20:37:49.608Z,98826.22
2023-04-12T20:40:17.506Z,98825.78
2023-04-12T20:42:45.341Z,98809.47
2023-04-12T20:45:13.503Z,98795.28
2023-04-12T20:47:41.576Z,98806.16
2023-04-12T20:50:09.385Z,98813.72
2023-04-12T20:52:37.163Z,98822.09
2023-04-12T20:55:05.953Z,98829.66
2023-04-12T20:57:34.679Z,98834.66
2023-04-12T21:00:02.701Z,98826.50
2023-04-12T21:02:30.921Z,98836.50
2023-04-12T21:04:59.452Z,98850.13
2023-04-12T21:07:27.400Z,98815.81
2023-04-12T21:09:55.298Z,98817.69
2023-04-12T21:12:25.912Z,98816.88
2023-04-12T21:14:53.701Z,98816.25
2023-04-12T21:17:22.889Z,98817.31
2023-04-12T21:19:51.356Z,98822.16
2023-04-12T21:22:19.145Z,98835.75
2023-04-12T21:24:47.304Z,98825.06
2023-04-12T21:27:15.196Z,98819.44
2023-04-12T21:29:43.035Z,98830.13
2023-04-12T21:32:10.970Z,98841.47
2023-04-12T21:34:39.290Z,98849.38
2023-04-12T21:37:07.101Z,98851.28
2023-04-12T21:39:35.008Z,98849.22
2023-04-12T21:42:03.281Z,98859.66
2023-04-12T21:44:31.121Z,98877.50
2023-04-12T21:46:58.929Z,98882.09
2023-04-12T21:49:26.986Z,98876.03
2023-04-12T21:51:57.001Z,98877.06
2023-04-12T21:54:25.154Z,98883.56
2023-04-12T21:56:52.909Z,98892.81
2023-04-12T21:59:20.908Z,98882.13
2023-04-12T22:01:48.739Z,98881.31
2023-04-12T22:04:16.621Z,98885.06
2023-04-12T22:06:45.460Z,98887.19
2023-04-12T22:09:13.303Z,98908.72
2023-04-12T22:11:41.084Z,98901.44
2023-04-12T22:14:09.096Z,98914.81
2023-04-12T22:16:36.952Z,98914.81
2023-04-12T22:19:04.922Z,98918.56
2023-04-12T22:21:33.479Z,98913.75
2023-04-12T22:24:01.461Z,98915.22
2023-04-12T22:26:31.280Z,98920.66
2023-04-12T22:28:59.215Z,98915.22
2023-04-12T22:31:27.686Z,98904.78
2023-04-12T22:33:56.494Z,98897.44
2023-04-12T22:36:28.516Z,98889.28
2023-04-12T22:38:57.451Z,98896.38
2023-04-12T22:41:28.733Z,98896.00
2023-04-12T22:44:01.419Z,98894.72
2023-04-12T22:46:32.059Z,98900.34
2023-04-12T22:49:00.491Z,98896.19
2023-04-12T22:51:28.484Z,98895.59
2023-04-12T22:53:57.006Z,98892.66
2023-04-12T22:56:25.544Z,98897.25
2023-04-12T22:58:53.817Z,98895.81
2023-04-12T23:01:21.699Z,98895.81
2023-04-12T23:03:49.565Z,98892.69
2023-04-12T23:06:19.106Z,98891.00
2023-04-12T23:08:47.311Z,98895.19
2023-04-12T23:11:15.138Z,98894.78
2023-04-12T23:13:42.937Z,98902.13
2023-04-12T23:16:11.307Z,98896.88
2023-04-12T23:18:39.243Z,98905.66
2023-04-12T23:21:07.031Z,98920.28
2023-04-12T23:23:35.027Z,98918.63
2023-04-12T23:26:02.929Z,98910.88
2023-04-12T23:28:30.880Z,98905.03
2023-04-12T23:31:01.677Z,98895.44
2023-04-12T23:33:29.505Z,98905.47
2023-04-12T23:35:57.263Z,98923.47
2023-04-12T23:38:32.103Z,98923.28
2023-04-12T23:41:00.504Z,98914.06
2023-04-12T23:43:28.367Z,98919.28
2023-04-12T23:45:56.133Z,98923.28
2023-04-12T23:48:24.020Z,98935.19
2023-04-12T23:50:51.851Z,98963.63
2023-04-12T23:53:19.678Z,98964.69
2023-04-12T23:55:47.539Z,98969.06
2023-04-12T23:58:15.385Z,98979.94
